sensor_id;sensor_type;location;lat;lon;timestamp;pressure;altitude;pressure_sealevel;temperature;humidity
829;BME280;396;52.558;13.188;2023-09-08T00:00:56;101738.94;;;16.65;100.00
829;BME280;396;52.558;13.188;2023-09-08T00:03:23;101739.03;;;16.60;100.00
829;BME280;396;52.558;13.188;2023-09-08T00:05:49;101732.28;;;16.57;100.00
829;BME280;396;52.558;13.188;2023-09-08T00:08:17;101743.22;;;16.57;100.00
829;BME280;396;52.558;13.188;2023-09-08T00:10:44;101737.09;;;16.52;100.00
829;BME280;396;52.558;13.188;2023-09-08T00:13:11;101735.44;;;16.51;100.00
829;BME280;396;52.558;13.188;2023-09-08T00:15:38;101743.16;;;16.49;100.00
829;BME280;396;52.558;13.188;2023-09-08T00:18:05;101735.38;;;16.42;100.00
829;BME280;396;52.558;13.188;2023-09-08T00:20:31;101731.03;;;16.41;100.00
829;BME280;396;52.558;13.188;2023-09-08T00:22:58;101733.91;;;16.36;100.00
829;BME280;396;52.558;13.188;2023-09-08T00:25:25;101725.38;;;16.37;100.00
829;BME280;396;52.558;13.188;2023-09-08T00:27:51;101731.50;;;16.34;100.00
829;BME280;396;52.558;13.188;2023-09-08T00:30:19;101733.13;;;16.35;100.00
829;BME280;396;52.558;13.188;2023-09-08T00:32:46;101736.16;;;16.34;100.00
829;BME280;396;52.558;13.188;2023-09-08T00:35:13;101731.94;;;16.28;100.00
829;BME280;396;52.558;13.188;2023-09-08T00:37:39;101724.66;;;16.23;100.00
829;BME280;396;52.558;13.188;2023-09-08T00:40:07;101719.00;;;16.20;100.00
829;BME280;396;52.558;13.188;2023-09-08T00:42:34;101718.84;;;16.16;100.00
829;BME280;396;52.558;13.188;2023-09-08T00:45:01;101723.19;;;16.17;100.00
829;BME280;396;52.558;13.188;2023-09-08T00:47:29;101720.72;;;16.15;100.00
829;BME280;396;52.558;13.188;2023-09-08T00:49:56;101723.47;;;16.15;100.00
829;BME280;396;52.558;13.188;2023-09-08T00:52:23;101724.91;;;16.13;100.00
829;BME280;396;52.558;13.188;2023-09-08T00:54:50;101712.31;;;16.03;100.00
829;BME280;396;52.558;13.188;2023-09-08T00:57:17;101722.91;;;16.05;100.00
829;BME280;396;52.558;13.188;2023-09-08T00:59:44;101711.50;;;16.03;100.00
829;BME280;396;52.558;13.188;2023-09-08T01:02:11;101718.69;;;15.99;100.00
829;BME280;396;52.558;13.188;2023-09-08T01:04:39;101718.31;;;15.92;100.00
829;BME280;396;52.558;13.188;2023-09-08T01:07:07;101712.38;;;15.89;100.00
829;BME280;396;52.558;13.188;2023-09-08T01:09:34;101712.53;;;15.93;100.00
829;BME280;396;52.558;13.188;2023-09-08T01:12:03;101715.56;;;15.92;100.00
829;BME280;396;52.558;13.188;2023-09-08T01:14:31;101714.47;;;15.93;100.00
829;BME280;396;52.558;13.188;2023-09-08T01:16:57;101709.63;;;15.89;100.00
829;BME280;396;52.558;13.188;2023-09-08T01:19:24;101714.91;;;15.86;100.00
829;BME280;396;52.558;13.188;2023-09-08T01:22:13;101708.13;;;15.83;100.00
829;BME280;396;52.558;13.188;2023-09-08T01:25:14;101709.84;;;15.79;100.00
829;BME280;396;52.558;13.188;2023-09-08T01:27:46;101707.84;;;15.71;100.00
829;BME280;396;52.558;13.188;2023-09-08T01:30:14;101705.63;;;15.73;100.00
829;BME280;396;52.558;13.188;2023-09-08T01:32:42;101701.28;;;15.72;100.00
829;BME280;396;52.558;13.188;2023-09-08T01:35:09;101703.81;;;15.69;100.00
829;BME280;396;52.558;13.188;2023-09-08T01:37:39;101702.50;;;15.66;100.00
829;BME280;396;52.558;13.188;2023-09-08T01:40:07;101705.22;;;15.66;100.00
829;BME280;396;52.558;13.188;2023-09-08T01:42:35;101695.00;;;15.58;100.00
829;BME280;396;52.558;13.188;2023-09-08T01:45:02;101693.72;;;15.55;100.00
829;BME280;396;52.558;13.188;2023-09-08T01:47:29;101692.09;;;15.54;100.00
829;BME280;396;52.558;13.188;2023-09-08T01:49:56;101695.31;;;15.56;100.00
829;BME280;396;52.558;13.188;2023-09-08T01:52:23;101698.38;;;15.55;100.00
829;BME280;396;52.558;13.188;2023-09-08T01:54:50;101694.63;;;15.51;100.00
829;BME280;396;52.558;13.188;2023-09-08T01:57:18;101694.03;;;15.54;100.00
829;BME280;396;52.558;13.188;2023-09-08T01:59:46;101686.25;;;15.47;100.00
829;BME280;396;52.558;13.188;2023-09-08T02:02:13;101681.22;;;15.41;100.00
829;BME280;396;52.558;13.188;2023-09-08T02:04:40;101681.50;;;15.39;100.00
829;BME280;396;52.558;13.188;2023-09-08T02:07:07;101679.56;;;15.39;100.00
829;BME280;396;52.558;13.188;2023-09-08T02:09:36;101686.88;;;15.30;100.00
829;BME280;396;52.558;13.188;2023-09-08T02:12:04;101679.19;;;15.32;100.00
829;BME280;396;52.558;13.188;2023-09-08T02:14:31;101679.09;;;15.37;100.00
829;BME280;396;52.558;13.188;2023-09-08T02:16:59;101674.75;;;15.36;100.00
829;BME280;396;52.558;13.188;2023-09-08T02:19:25;101685.47;;;15.33;100.00
829;BME280;396;52.558;13.188;2023-09-08T02:21:52;101683.22;;;15.35;100.00
829;BME280;396;52.558;13.188;2023-09-08T02:24:19;101677.16;;;15.38;100.00
829;BME280;396;52.558;13.188;2023-09-08T02:26:45;101676.34;;;15.37;100.00
829;BME280;396;52.558;13.188;2023-09-08T02:29:13;101675.84;;;15.35;100.00
829;BME280;396;52.558;13.188;2023-09-08T02:31:40;101675.34;;;15.33;100.00
829;BME280;396;52.558;13.188;2023-09-08T02:34:10;101679.00;;;15.29;100.00
829;BME280;396;52.558;13.188;2023-09-08T02:36:37;101679.09;;;15.24;100.00
829;BME280;396;52.558;13.188;2023-09-08T02:39:04;101677.47;;;15.23;100.00
829;BME280;396;52.558;13.188;2023-09-08T02:41:32;101675.56;;;15.23;100.00
829;BME280;396;52.558;13.188;2023-09-08T02:43:59;101679.38;;;15.22;100.00
829;BME280;396;52.558;13.188;2023-09-08T02:46:26;101669.91;;;15.20;100.00
829;BME280;396;52.558;13.188;2023-09-08T02:48:53;101664.66;;;15.09;100.00
829;BME280;396;52.558;13.188;2023-09-08T02:51:21;101673.03;;;15.13;100.00
829;BME280;396;52.558;13.188;2023-09-08T02:53:48;101659.91;;;15.15;100.00
829;BME280;396;52.558;13.188;2023-09-08T02:56:15;101665.66;;;15.13;100.00
829;BME280;396;52.558;13.188;2023-09-08T02:58:41;101663.03;;;15.08;100.00
829;BME280;396;52.558;13.188;2023-09-08T03:01:10;101655.66;;;15.09;100.00
829;BME280;396;52.558;13.188;2023-09-08T03:03:38;101664.47;;;15.06;100.00
829;BME280;396;52.558;13.188;2023-09-08T03:06:05;101657.38;;;15.05;100.00
829;BME280;396;52.558;13.188;2023-09-08T03:08:33;101660.09;;;15.05;100.00
829;BME280;396;52.558;13.188;2023-09-08T03:11:02;101658.22;;;15.05;100.00
829;BME280;396;52.558;13.188;2023-09-08T03:13:29;101654.47;;;15.01;100.00
829;BME280;396;52.558;13.188;2023-09-08T03:15:55;101649.63;;;14.98;98.09
829;BME280;396;52.558;13.188;2023-09-08T03:18:22;101647.59;;;14.90;96.10
829;BME280;396;52.558;13.188;2023-09-08T03:20:49;101656.00;;;14.80;97.34
829;BME280;396;52.558;13.188;2023-09-08T03:23:16;101650.53;;;14.80;99.13
829;BME280;396;52.558;13.188;2023-09-08T03:25:44;101644.56;;;14.78;100.00
829;BME280;396;52.558;13.188;2023-09-08T03:28:11;101642.63;;;14.78;100.00
829;BME280;396;52.558;13.188;2023-09-08T03:30:38;101647.09;;;14.74;100.00
829;BME280;396;52.558;13.188;2023-09-08T03:33:04;101648.41;;;14.77;100.00
829;BME280;396;52.558;13.188;2023-09-08T03:35:31;101651.66;;;14.79;100.00
829;BME280;396;52.558;13.188;2023-09-08T03:37:57;101648.09;;;14.78;100.00
829;BME280;396;52.558;13.188;2023-09-08T03:40:24;101653.06;;;14.76;100.00
829;BME280;396;52.558;13.188;2023-09-08T03:42:52;101657.28;;;14.82;100.00
829;BME280;396;52.558;13.188;2023-09-08T03:45:19;101659.72;;;14.84;100.00
829;BME280;396;52.558;13.188;2023-09-08T03:47:45;101655.69;;;14.81;100.00
829;BME280;396;52.558;13.188;2023-09-08T03:50:12;101666.00;;;14.84;100.00
829;BME280;396;52.558;13.188;2023-09-08T03:52:40;101660.63;;;14.79;100.00
829;BME280;396;52.558;13.188;2023-09-08T03:55:06;101657.09;;;14.79;100.00
829;BME280;396;52.558;13.188;2023-09-08T03:57:33;101661.44;;;14.80;100.00
829;BME280;396;52.558;13.188;2023-09-08T04:00:01;101656.78;;;14.80;100.00
829;BME280;396;52.558;13.188;2023-09-08T04:02:29;101664.66;;;14.82;100.00
829;BME280;396;52.558;13.188;2023-09-08T04:04:56;101661.66;;;14.83;100.00
829;BME280;396;52.558;13.188;2023-09-08T04:07:22;101662.94;;;14.86;100.00
829;BME280;396;52.558;13.188;2023-09-08T04:09:49;101660.81;;;14.83;100.00
829;BME280;396;52.558;13.188;2023-09-08T04:12:16;101655.19;;;14.79;100.00
829;BME280;396;52.558;13.188;2023-09-08T04:14:42;101653.47;;;14.83;100.00
829;BME280;396;52.558;13.188;2023-09-08T04:17:10;101658.63;;;14.85;100.00
829;BME280;396;52.558;13.188;2023-09-08T04:19:37;101655.56;;;14.86;100.00
829;BME280;396;52.558;13.188;2023-09-08T04:22:03;101661.53;;;14.88;100.00
829;BME280;396;52.558;13.188;2023-09-08T04:24:34;101659.41;;;14.85;100.00
829;BME280;396;52.558;13.188;2023-09-08T04:27:01;101655.78;;;14.90;100.00
829;BME280;396;52.558;13.188;2023-09-08T04:29:28;101655.47;;;14.92;100.00
829;BME280;396;52.558;13.188;2023-09-08T04:31:54;101654.06;;;14.94;100.00
829;BME280;396;52.558;13.188;2023-09-08T04:34:22;101663.03;;;14.95;100.00
829;BME280;396;52.558;13.188;2023-09-08T04:36:49;101654.56;;;14.96;100.00
829;BME280;396;52.558;13.188;2023-09-08T04:39:16;101658.59;;;14.99;100.00
829;BME280;396;52.558;13.188;2023-09-08T04:41:42;101667.31;;;15.01;100.00
829;BME280;396;52.558;13.188;2023-09-08T04:44:09;101660.72;;;15.02;100.00
829;BME280;396;52.558;13.188;2023-09-08T04:46:35;101656.41;;;15.01;100.00
829;BME280;396;52.558;13.188;2023-09-08T04:49:02;101655.75;;;15.04;100.00
829;BME280;396;52.558;13.188;2023-09-08T04:51:30;101665.28;;;15.06;100.00
829;BME280;396;52.558;13.188;2023-09-08T04:53:57;101663.84;;;15.09;100.00
829;BME280;396;52.558;13.188;2023-09-08T04:56:23;101664.56;;;15.14;100.00
829;BME280;396;52.558;13.188;2023-09-08T04:58:50;101663.13;;;15.17;100.00
829;BME280;396;52.558;13.188;2023-09-08T05:01:17;101666.88;;;15.21;100.00
829;BME280;396;52.558;13.188;2023-09-08T05:03:44;101674.94;;;15.26;100.00
829;BME280;396;52.558;13.188;2023-09-08T05:06:11;101665.66;;;15.27;100.00
829;BME280;396;52.558;13.188;2023-09-08T05:08:40;101666.47;;;15.28;100.00
829;BME280;396;52.558;13.188;2023-09-08T05:11:07;101672.63;;;15.33;100.00
829;BME280;396;52.558;13.188;2023-09-08T05:13:34;101666.25;;;15.38;100.00
829;BME280;396;52.558;13.188;2023-09-08T05:16:00;101663.81;;;15.36;100.00
829;BME280;396;52.558;13.188;2023-09-08T05:18:36;101658.84;;;15.38;100.00
829;BME280;396;52.558;13.188;2023-09-08T05:21:03;101661.97;;;15.46;100.00
829;BME280;396;52.558;13.188;2023-09-08T05:23:29;101662.16;;;15.49;100.00
829;BME280;396;52.558;13.188;2023-09-08T05:25:57;101665.72;;;15.50;100.00
829;BME280;396;52.558;13.188;2023-09-08T05:28:24;101657.59;;;15.45;100.00
829;BME280;396;52.558;13.188;2023-09-08T05:30:51;101659.72;;;15.48;100.00
829;BME280;396;52.558;13.188;2023-09-08T05:33:17;101657.53;;;15.50;100.00
829;BME280;396;52.558;13.188;2023-09-08T05:35:45;101656.75;;;15.58;100.00
829;BME280;396;52.558;13.188;2023-09-08T05:38:12;101665.06;;;15.67;100.00
829;BME280;396;52.558;13.188;2023-09-08T05:40:39;101662.91;;;15.77;100.00
829;BME280;396;52.558;13.188;2023-09-08T05:43:07;101670.25;;;15.91;100.00
829;BME280;396;52.558;13.188;2023-09-08T05:45:34;101666.66;;;16.04;100.00
829;BME280;396;52.558;13.188;2023-09-08T05:48:00;101673.47;;;16.15;100.00
829;BME280;396;52.558;13.188;2023-09-08T05:50:27;101665.81;;;16.26;100.00
829;BME280;396;52.558;13.188;2023-09-08T05:52:54;101665.22;;;16.37;100.00
829;BME280;396;52.558;13.188;2023-09-08T05:55:20;101673.66;;;16.50;100.00
829;BME280;396;52.558;13.188;2023-09-08T05:57:47;101670.66;;;16.60;100.00
829;BME280;396;52.558;13.188;2023-09-08T06:00:16;101677.28;;;16.68;100.00
829;BME280;396;52.558;13.188;2023-09-08T06:02:43;101668.66;;;16.74;100.00
829;BME280;396;52.558;13.188;2023-09-08T06:05:09;101672.25;;;16.83;100.00
829;BME280;396;52.558;13.188;2023-09-08T06:07:36;101671.94;;;16.94;100.00
829;BME280;396;52.558;13.188;2023-09-08T06:10:03;101672.44;;;17.04;100.00
829;BME280;396;52.558;13.188;2023-09-08T06:12:30;101671.03;;;17.15;100.00
829;BME280;396;52.558;13.188;2023-09-08T06:14:56;101669.94;;;17.25;100.00
829;BME280;396;52.558;13.188;2023-09-08T06:17:24;101683.81;;;17.37;100.00
829;BME280;396;52.558;13.188;2023-09-08T06:19:51;101670.28;;;17.50;100.00
829;BME280;396;52.558;13.188;2023-09-08T06:22:17;101673.22;;;17.62;100.00
829;BME280;396;52.558;13.188;2023-09-08T06:24:44;101670.13;;;17.72;100.00
829;BME280;396;52.558;13.188;2023-09-08T06:27:11;101666.28;;;17.82;100.00
829;BME280;396;52.558;13.188;2023-09-08T06:29:38;101672.72;;;17.95;100.00
829;BME280;396;52.558;13.188;2023-09-08T06:32:06;101666.91;;;18.05;100.00
829;BME280;396;52.558;13.188;2023-09-08T06:34:34;101664.97;;;18.14;100.00
829;BME280;396;52.558;13.188;2023-09-08T06:37:01;101663.16;;;18.27;100.00
829;BME280;396;52.558;13.188;2023-09-08T06:39:28;101666.38;;;18.37;100.00
829;BME280;396;52.558;13.188;2023-09-08T06:41:54;101663.88;;;18.53;100.00
829;BME280;396;52.558;13.188;2023-09-08T06:44:21;101667.09;;;18.64;99.63
829;BME280;396;52.558;13.188;2023-09-08T06:46:48;101667.09;;;18.73;98.55
829;BME280;396;52.558;13.188;2023-09-08T06:49:14;101666.38;;;18.84;97.95
829;BME280;396;52.558;13.188;2023-09-08T06:51:42;101665.97;;;18.95;96.86
829;BME280;396;52.558;13.188;2023-09-08T06:54:09;101669.16;;;19.05;96.16
829;BME280;396;52.558;13.188;2023-09-08T06:56:36;101672.81;;;19.18;94.49
829;BME280;396;52.558;13.188;2023-09-08T06:59:02;101672.41;;;19.28;93.90
829;BME280;396;52.558;13.188;2023-09-08T07:01:29;101669.41;;;19.42;93.62
829;BME280;396;52.558;13.188;2023-09-08T07:03:56;101669.03;;;19.52;92.94
829;BME280;396;52.558;13.188;2023-09-08T07:06:22;101667.16;;;19.65;92.07
829;BME280;396;52.558;13.188;2023-09-08T07:08:50;101674.53;;;19.73;91.50
829;BME280;396;52.558;13.188;2023-09-08T07:11:17;101670.91;;;19.81;90.64
829;BME280;396;52.558;13.188;2023-09-08T07:13:43;101672.28;;;19.87;90.16
829;BME280;396;52.558;13.188;2023-09-08T07:16:10;101676.91;;;19.96;90.45
829;BME280;396;52.558;13.188;2023-09-08T07:18:37;101676.97;;;20.08;87.56
829;BME280;396;52.558;13.188;2023-09-08T07:21:03;101676.22;;;20.20;87.56
829;BME280;396;52.558;13.188;2023-09-08T07:23:30;101679.69;;;20.29;87.16
829;BME280;396;52.558;13.188;2023-09-08T07:25:58;101680.72;;;20.36;86.02
829;BME280;396;52.558;13.188;2023-09-08T07:28:25;101685.78;;;20.47;83.99
829;BME280;396;52.558;13.188;2023-09-08T07:30:51;101690.53;;;20.58;84.18
829;BME280;396;52.558;13.188;2023-09-08T07:33:18;101696.75;;;20.68;85.08
829;BME280;396;52.558;13.188;2023-09-08T07:35:45;101697.34;;;20.73;84.67
829;BME280;396;52.558;13.188;2023-09-08T07:38:11;101688.50;;;20.80;84.87
829;BME280;396;52.558;13.188;2023-09-08T07:40:38;101697.44;;;20.89;84.59
829;BME280;396;52.558;13.188;2023-09-08T07:43:06;101701.22;;;20.97;83.17
829;BME280;396;52.558;13.188;2023-09-08T07:45:33;101702.50;;;20.99;80.22
829;BME280;396;52.558;13.188;2023-09-08T07:47:59;101699.53;;;21.04;79.67
829;BME280;396;52.558;13.188;2023-09-08T07:50:28;101698.13;;;21.10;79.31
829;BME280;396;52.558;13.188;2023-09-08T07:52:56;101698.25;;;21.14;79.58
829;BME280;396;52.558;13.188;2023-09-08T07:55:23;101694.09;;;21.20;79.22
829;BME280;396;52.558;13.188;2023-09-08T07:57:52;101698.47;;;21.33;79.30
829;BME280;396;52.558;13.188;2023-09-08T08:00:21;101699.16;;;21.42;79.34
829;BME280;396;52.558;13.188;2023-09-08T08:02:49;101699.47;;;21.53;78.70
829;BME280;396;52.558;13.188;2023-09-08T08:05:15;101700.50;;;21.61;77.42
829;BME280;396;52.558;13.188;2023-09-08T08:07:43;101707.59;;;21.74;76.19
829;BME280;396;52.558;13.188;2023-09-08T08:10:10;101698.13;;;21.87;74.76
829;BME280;396;52.558;13.188;2023-09-08T08:12:37;101706.00;;;22.01;74.77
829;BME280;396;52.558;13.188;2023-09-08T08:15:05;101700.53;;;22.17;74.31
829;BME280;396;52.558;13.188;2023-09-08T08:17:34;101701.38;;;22.33;72.59
829;BME280;396;52.558;13.188;2023-09-08T08:20:01;101696.50;;;22.42;72.83
829;BME280;396;52.558;13.188;2023-09-08T08:22:32;101692.41;;;22.52;73.67
829;BME280;396;52.558;13.188;2023-09-08T08:24:58;101688.13;;;22.55;74.29
829;BME280;396;52.558;13.188;2023-09-08T08:27:25;101692.94;;;22.58;73.54
829;BME280;396;52.558;13.188;2023-09-08T08:29:52;101687.59;;;22.65;73.04
829;BME280;396;52.558;13.188;2023-09-08T08:32:18;101682.97;;;22.69;73.14
829;BME280;396;52.558;13.188;2023-09-08T08:34:46;101695.09;;;22.80;71.50
829;BME280;396;52.558;13.188;2023-09-08T08:37:13;101688.25;;;22.90;71.00
829;BME280;396;52.558;13.188;2023-09-08T08:39:40;101690.81;;;22.99;70.54
829;BME280;396;52.558;13.188;2023-09-08T08:42:07;101684.72;;;23.09;71.25
829;BME280;396;52.558;13.188;2023-09-08T08:44:34;101687.59;;;23.12;71.51
829;BME280;396;52.558;13.188;2023-09-08T08:47:02;101685.34;;;23.18;72.40
829;BME280;396;52.558;13.188;2023-09-08T08:49:31;101677.94;;;23.22;70.65
829;BME280;396;52.558;13.188;2023-09-08T08:51:59;101681.81;;;23.37;68.76
829;BME280;396;52.558;13.188;2023-09-08T08:54:29;101685.69;;;23.52;68.28
829;BME280;396;52.558;13.188;2023-09-08T08:56:56;101675.03;;;23.70;67.58
829;BME280;396;52.558;13.188;2023-09-08T08:59:23;101669.28;;;23.78;66.92
829;BME280;396;52.558;13.188;2023-09-08T09:01:50;101669.41;;;23.85;67.19
829;BME280;396;52.558;13.188;2023-09-08T09:04:17;101678.16;;;23.87;67.62
829;BME280;396;52.558;13.188;2023-09-08T09:06:45;101674.78;;;23.98;68.16
829;BME280;396;52.558;13.188;2023-09-08T09:09:13;101679.06;;;24.14;64.76
829;BME280;396;52.558;13.188;2023-09-08T09:11:40;101679.06;;;24.14;66.42
829;BME280;396;52.558;13.188;2023-09-08T09:14:07;101675.19;;;24.19;65.53
829;BME280;396;52.558;13.188;2023-09-08T09:16:38;101669.34;;;24.24;64.85
829;BME280;396;52.558;13.188;2023-09-08T09:19:05;101673.84;;;24.32;65.86
829;BME280;396;52.558;13.188;2023-09-08T09:21:42;101665.34;;;24.41;65.93
829;BME280;396;52.558;13.188;2023-09-08T09:24:15;101669.78;;;24.46;64.98
829;BME280;396;52.558;13.188;2023-09-08T09:26:41;101677.59;;;24.63;62.07
829;BME280;396;52.558;13.188;2023-09-08T09:29:12;101681.69;;;24.73;63.19
829;BME280;396;52.558;13.188;2023-09-08T09:31:50;101677.81;;;24.77;63.04
829;BME280;396;52.558;13.188;2023-09-08T09:34:17;101673.13;;;24.81;63.72
829;BME280;396;52.558;13.188;2023-09-08T09:36:45;101670.09;;;24.90;64.41
829;BME280;396;52.558;13.188;2023-09-08T09:39:17;101675.31;;;24.95;63.41
829;BME280;396;52.558;13.188;2023-09-08T09:41:44;101671.88;;;25.02;63.65
829;BME280;396;52.558;13.188;2023-09-08T09:44:11;101667.19;;;25.06;63.08
829;BME280;396;52.558;13.188;2023-09-08T09:46:38;101672.84;;;25.13;62.87
829;BME280;396;52.558;13.188;2023-09-08T09:49:05;101665.75;;;25.15;63.45
829;BME280;396;52.558;13.188;2023-09-08T09:51:32;101671.44;;;25.26;60.48
829;BME280;396;52.558;13.188;2023-09-08T09:54:03;101662.78;;;25.31;61.96
829;BME280;396;52.558;13.188;2023-09-08T09:56:32;101657.34;;;25.38;61.95
829;BME280;396;52.558;13.188;2023-09-08T09:59:01;101663.78;;;25.46;60.79
829;BME280;396;52.558;13.188;2023-09-08T10:01:29;101660.72;;;25.55;61.98
829;BME280;396;52.558;13.188;2023-09-08T10:03:56;101655.59;;;25.57;60.79
829;BME280;396;52.558;13.188;2023-09-08T10:06:25;101649.69;;;25.62;61.03
829;BME280;396;52.558;13.188;2023-09-08T10:08:53;101660.91;;;25.69;61.91
829;BME280;396;52.558;13.188;2023-09-08T10:11:22;101655.44;;;25.76;60.32
829;BME280;396;52.558;13.188;2023-09-08T10:13:53;101645.22;;;25.84;59.72
829;BME280;396;52.558;13.188;2023-09-08T10:16:26;101653.66;;;25.91;60.21
829;BME280;396;52.558;13.188;2023-09-08T10:18:52;101652.19;;;26.04;59.78
829;BME280;396;52.558;13.188;2023-09-08T10:21:21;101650.47;;;26.30;55.24
829;BME280;396;52.558;13.188;2023-09-08T10:23:54;101652.66;;;26.51;55.28
829;BME280;396;52.558;13.188;2023-09-08T10:26:26;101655.47;;;26.54;56.67
829;BME280;396;52.558;13.188;2023-09-08T10:28:55;101643.97;;;26.56;57.68
829;BME280;396;52.558;13.188;2023-09-08T10:31:23;101640.47;;;26.66;58.10
829;BME280;396;52.558;13.188;2023-09-08T10:33:52;101639.69;;;26.69;55.45
829;BME280;396;52.558;13.188;2023-09-08T10:36:19;101644.13;;;26.77;56.46
829;BME280;396;52.558;13.188;2023-09-08T10:38:45;101629.03;;;26.78;55.35
829;BME280;396;52.558;13.188;2023-09-08T10:41:27;101631.94;;;26.92;55.47
829;BME280;396;52.558;13.188;2023-09-08T10:44:01;101634.88;;;27.14;53.10
829;BME280;396;52.558;13.188;2023-09-08T10:46:31;101632.16;;;27.32;54.33
829;BME280;396;52.558;13.188;2023-09-08T10:49:02;101632.63;;;27.52;54.00
829;BME280;396;52.558;13.188;2023-09-08T10:51:29;101631.50;;;27.67;53.78
829;BME280;396;52.558;13.188;2023-09-08T10:53:56;101629.19;;;27.76;51.62
829;BME280;396;52.558;13.188;2023-09-08T10:56:27;101633.97;;;27.86;52.39
829;BME280;396;52.558;13.188;2023-09-08T10:58:54;101638.78;;;28.04;50.15
829;BME280;396;52.558;13.188;2023-09-08T11:01:22;101634.81;;;28.15;50.48
829;BME280;396;52.558;13.188;2023-09-08T11:03:52;101630.03;;;28.20;49.03
829;BME280;396;52.558;13.188;2023-09-08T11:06:19;101627.25;;;28.27;49.19
829;BME280;396;52.558;13.188;2023-09-08T11:08:47;101626.09;;;28.46;49.59
829;BME280;396;52.558;13.188;2023-09-08T11:11:18;101627.28;;;28.66;50.17
829;BME280;396;52.558;13.188;2023-09-08T11:13:45;101627.63;;;29.07;50.27
829;BME280;396;52.558;13.188;2023-09-08T11:16:13;101636.97;;;29.71;48.56
829;BME280;396;52.558;13.188;2023-09-08T11:18:41;101631.06;;;30.24;46.11
829;BME280;396;52.558;13.188;2023-09-08T11:21:09;101635.28;;;30.88;45.94
829;BME280;396;52.558;13.188;2023-09-08T11:23:37;101635.88;;;31.44;44.77
829;BME280;396;52.558;13.188;2023-09-08T11:26:04;101632.47;;;32.14;43.84
829;BME280;396;52.558;13.188;2023-09-08T11:28:32;101636.44;;;32.67;41.51
829;BME280;396;52.558;13.188;2023-09-08T11:30:58;101635.00;;;33.22;39.99
829;BME280;396;52.558;13.188;2023-09-08T11:33:25;101629.88;;;33.37;37.15
829;BME280;396;52.558;13.188;2023-09-08T11:35:54;101638.44;;;33.70;39.68
829;BME280;396;52.558;13.188;2023-09-08T11:38:24;101635.94;;;33.55;37.41
829;BME280;396;52.558;13.188;2023-09-08T11:40:52;101630.03;;;33.86;37.64
829;BME280;396;52.558;13.188;2023-09-08T11:43:19;101629.63;;;34.20;38.28
829;BME280;396;52.558;13.188;2023-09-08T11:45:46;101621.34;;;34.62;37.98
829;BME280;396;52.558;13.188;2023-09-08T11:48:14;101625.75;;;35.08;37.47
829;BME280;396;52.558;13.188;2023-09-08T11:50:41;101624.19;;;35.33;36.11
829;BME280;396;52.558;13.188;2023-09-08T11:53:09;101617.63;;;35.65;35.57
829;BME280;396;52.558;13.188;2023-09-08T11:55:36;101616.59;;;35.84;34.93
829;BME280;396;52.558;13.188;2023-09-08T11:58:03;101613.69;;;36.01;34.89
829;BME280;396;52.558;13.188;2023-09-08T12:00:31;101612.56;;;36.11;34.03
829;BME280;396;52.558;13.188;2023-09-08T12:03:09;101609.69;;;36.36;33.77
829;BME280;396;52.558;13.188;2023-09-08T12:05:36;101604.16;;;36.46;34.12
829;BME280;396;52.558;13.188;2023-09-08T12:08:05;101604.66;;;36.66;33.65
829;BME280;396;52.558;13.188;2023-09-08T12:10:39;101605.09;;;36.65;32.74
829;BME280;396;52.558;13.188;2023-09-08T12:13:06;101608.66;;;36.78;32.47
829;BME280;396;52.558;13.188;2023-09-08T12:15:35;101599.31;;;36.68;32.20
829;BME280;396;52.558;13.188;2023-09-08T12:18:03;101599.78;;;36.88;33.28
829;BME280;396;52.558;13.188;2023-09-08T12:20:30;101589.69;;;37.00;32.42
829;BME280;396;52.558;13.188;2023-09-08T12:22:59;101599.41;;;36.99;32.39
829;BME280;396;52.558;13.188;2023-09-08T12:25:27;101591.06;;;37.18;32.27
829;BME280;396;52.558;13.188;2023-09-08T12:27:58;101587.81;;;36.97;31.52
829;BME280;396;52.558;13.188;2023-09-08T12:30:25;101585.19;;;37.34;32.84
829;BME280;396;52.558;13.188;2023-09-08T12:32:56;101581.03;;;37.48;31.65
829;BME280;396;52.558;13.188;2023-09-08T12:35:24;101579.19;;;37.63;31.24
829;BME280;396;52.558;13.188;2023-09-08T12:37:57;101583.31;;;37.71;31.13
829;BME280;396;52.558;13.188;2023-09-08T12:40:24;101582.50;;;37.61;31.02
829;BME280;396;52.558;13.188;2023-09-08T12:42:51;101587.34;;;38.01;31.10
829;BME280;396;52.558;13.188;2023-09-08T12:45:20;101583.47;;;38.26;30.60
829;BME280;396;52.558;13.188;2023-09-08T12:47:47;101587.53;;;38.16;29.74
829;BME280;396;52.558;13.188;2023-09-08T12:50:14;101565.66;;;37.58;29.45
829;BME280;396;52.558;13.188;2023-09-08T12:52:40;101576.63;;;37.87;31.24
829;BME280;396;52.558;13.188;2023-09-08T12:55:08;101571.56;;;38.31;30.23
829;BME280;396;52.558;13.188;2023-09-08T12:57:35;101570.91;;;38.46;29.90
829;BME280;396;52.558;13.188;2023-09-08T13:00:02;101574.22;;;38.90;28.96
829;BME280;396;52.558;13.188;2023-09-08T13:02:30;101571.78;;;39.16;29.27
829;BME280;396;52.558;13.188;2023-09-08T13:04:57;101570.53;;;39.08;28.52
829;BME280;396;52.558;13.188;2023-09-08T13:07:24;101565.53;;;38.94;29.67
829;BME280;396;52.558;13.188;2023-09-08T13:09:51;101560.28;;;39.20;29.73
829;BME280;396;52.558;13.188;2023-09-08T13:12:17;101560.41;;;39.34;30.25
829;BME280;396;52.558;13.188;2023-09-08T13:14:44;101563.44;;;39.22;29.51
829;BME280;396;52.558;13.188;2023-09-08T13:17:11;101562.00;;;39.17;29.44
829;BME280;396;52.558;13.188;2023-09-08T13:19:39;101559.66;;;39.16;29.58